sensor_id;sensor_type;location;lat;lon;timestamp;P1;durP1;ratioP1;P2;durP2;ratioP2
6131;SDS011;3097;42.692;23.278;2022-12-18T00:00:30;6.33;;;5.23;;
6131;SDS011;3097;42.692;23.278;2022-12-18T00:02:55;8.13;;;6.00;;
6131;SDS011;3097;42.692;23.278;2022-12-18T00:05:20;8.10;;;5.70;;
6131;SDS011;3097;42.692;23.278;2022-12-18T00:07:46;7.13;;;5.73;;
6131;SDS011;3097;42.692;23.278;2022-12-18T00:10:11;9.30;;;5.57;;
6131;SDS011;3097;42.692;23.278;2022-12-18T00:12:37;7.97;;;6.17;;
6131;SDS011;3097;42.692;23.278;2022-12-18T00:15:03;8.03;;;6.23;;
6131;SDS011;3097;42.692;23.278;2022-12-18T00:17:28;8.40;;;6.13;;
6131;SDS011;3097;42.692;23.278;2022-12-18T00:19:54;9.10;;;6.00;;
6131;SDS011;3097;42.692;23.278;2022-12-18T00:22:19;9.83;;;6.37;;
6131;SDS011;3097;42.692;23.278;2022-12-18T00:24:45;8.93;;;6.37;;
6131;SDS011;3097;42.692;23.278;2022-12-18T00:27:10;9.60;;;6.57;;
6131;SDS011;3097;42.692;23.278;2022-12-18T00:29:35;7.80;;;5.67;;
6131;SDS011;3097;42.692;23.278;2022-12-18T00:32:01;8.17;;;6.47;;
6131;SDS011;3097;42.692;23.278;2022-12-18T00:34:26;9.77;;;6.30;;
6131;SDS011;3097;42.692;23.278;2022-12-18T00:36:52;10.47;;;7.23;;
6131;SDS011;3097;42.692;23.278;2022-12-18T00:39:17;11.20;;;6.73;;
6131;SDS011;3097;42.692;23.278;2022-12-18T00:41:42;8.97;;;5.97;;
6131;SDS011;3097;42.692;23.278;2022-12-18T00:44:26;11.03;;;6.17;;
6131;SDS011;3097;42.692;23.278;2022-12-18T00:46:52;8.77;;;6.13;;
6131;SDS011;3097;42.692;23.278;2022-12-18T00:49:18;10.50;;;6.53;;
6131;SDS011;3097;42.692;23.278;2022-12-18T00:51:44;9.80;;;6.47;;
6131;SDS011;3097;42.692;23.278;2022-12-18T00:54:10;8.57;;;6.27;;
6131;SDS011;3097;42.692;23.278;2022-12-18T00:56:37;8.90;;;6.40;;
6131;SDS011;3097;42.692;23.278;2022-12-18T00:59:03;7.30;;;5.53;;
6131;SDS011;3097;42.692;23.278;2022-12-18T01:01:29;8.60;;;6.17;;
6131;SDS011;3097;42.692;23.278;2022-12-18T01:03:55;7.87;;;5.80;;
6131;SDS011;3097;42.692;23.278;2022-12-18T01:06:23;7.13;;;5.83;;
6131;SDS011;3097;42.692;23.278;2022-12-18T01:08:48;8.83;;;5.80;;
6131;SDS011;3097;42.692;23.278;2022-12-18T01:11:15;8.60;;;6.10;;
6131;SDS011;3097;42.692;23.278;2022-12-18T01:13:42;7.43;;;5.90;;
6131;SDS011;3097;42.692;23.278;2022-12-18T01:16:08;7.83;;;6.00;;
6131;SDS011;3097;42.692;23.278;2022-12-18T01:18:35;10.73;;;6.50;;
6131;SDS011;3097;42.692;23.278;2022-12-18T01:21:05;10.83;;;6.60;;
6131;SDS011;3097;42.692;23.278;2022-12-18T01:23:31;11.77;;;7.10;;
6131;SDS011;3097;42.692;23.278;2022-12-18T01:25:57;9.67;;;6.40;;
6131;SDS011;3097;42.692;23.278;2022-12-18T01:28:23;15.20;;;7.50;;
6131;SDS011;3097;42.692;23.278;2022-12-18T01:30:48;11.03;;;6.17;;
6131;SDS011;3097;42.692;23.278;2022-12-18T01:33:13;12.43;;;7.53;;
6131;SDS011;3097;42.692;23.278;2022-12-18T01:35:40;12.47;;;7.30;;
6131;SDS011;3097;42.692;23.278;2022-12-18T01:38:06;14.17;;;8.43;;
6131;SDS011;3097;42.692;23.278;2022-12-18T01:40:32;11.67;;;7.10;;
6131;SDS011;3097;42.692;23.278;2022-12-18T01:42:57;8.57;;;6.73;;
6131;SDS011;3097;42.692;23.278;2022-12-18T01:45:24;10.53;;;7.17;;
6131;SDS011;3097;42.692;23.278;2022-12-18T01:47:53;9.60;;;6.80;;
6131;SDS011;3097;42.692;23.278;2022-12-18T01:50:21;8.93;;;6.50;;
6131;SDS011;3097;42.692;23.278;2022-12-18T01:52:52;9.30;;;6.13;;
6131;SDS011;3097;42.692;23.278;2022-12-18T01:55:20;8.27;;;6.17;;
6131;SDS011;3097;42.692;23.278;2022-12-18T01:57:49;8.83;;;5.73;;
6131;SDS011;3097;42.692;23.278;2022-12-18T02:00:19;9.63;;;6.23;;
6131;SDS011;3097;42.692;23.278;2022-12-18T02:02:46;11.00;;;6.70;;
6131;SDS011;3097;42.692;23.278;2022-12-18T02:05:15;9.27;;;6.40;;
6131;SDS011;3097;42.692;23.278;2022-12-18T02:10:28;10.90;;;6.80;;
6131;SDS011;3097;42.692;23.278;2022-12-18T02:15:40;6.93;;;5.67;;
6131;SDS011;3097;42.692;23.278;2022-12-18T02:18:32;8.80;;;5.93;;
6131;SDS011;3097;42.692;23.278;2022-12-18T02:24:03;9.60;;;6.47;;
6131;SDS011;3097;42.692;23.278;2022-12-18T02:26:55;9.37;;;6.27;;
6131;SDS011;3097;42.692;23.278;2022-12-18T02:29:24;8.57;;;5.90;;
6131;SDS011;3097;42.692;23.278;2022-12-18T02:31:54;9.63;;;6.27;;
6131;SDS011;3097;42.692;23.278;2022-12-18T02:34:27;9.50;;;6.50;;
6131;SDS011;3097;42.692;23.278;2022-12-18T02:36:55;9.57;;;6.30;;
6131;SDS011;3097;42.692;23.278;2022-12-18T02:39:23;10.07;;;5.87;;
6131;SDS011;3097;42.692;23.278;2022-12-18T02:41:51;9.23;;;6.00;;
6131;SDS011;3097;42.692;23.278;2022-12-18T02:44:17;7.50;;;6.03;;
6131;SDS011;3097;42.692;23.278;2022-12-18T02:46:43;8.80;;;5.57;;
6131;SDS011;3097;42.692;23.278;2022-12-18T02:54:47;9.03;;;6.60;;
6131;SDS011;3097;42.692;23.278;2022-12-18T03:00:12;6.57;;;4.80;;
6131;SDS011;3097;42.692;23.278;2022-12-18T03:05:31;7.93;;;5.30;;
6131;SDS011;3097;42.692;23.278;2022-12-18T03:08:12;9.63;;;5.63;;
6131;SDS011;3097;42.692;23.278;2022-12-18T03:11:06;8.60;;;5.87;;
6131;SDS011;3097;42.692;23.278;2022-12-18T03:13:39;10.77;;;6.90;;
6131;SDS011;3097;42.692;23.278;2022-12-18T03:16:08;13.70;;;8.07;;
6131;SDS011;3097;42.692;23.278;2022-12-18T03:18:38;15.33;;;8.57;;
6131;SDS011;3097;42.692;23.278;2022-12-18T03:21:10;9.57;;;6.03;;
6131;SDS011;3097;42.692;23.278;2022-12-18T03:23:40;10.00;;;6.60;;
6131;SDS011;3097;42.692;23.278;2022-12-18T03:26:12;8.07;;;6.17;;
6131;SDS011;3097;42.692;23.278;2022-12-18T03:28:44;10.93;;;5.67;;
6131;SDS011;3097;42.692;23.278;2022-12-18T03:31:14;9.27;;;6.23;;
6131;SDS011;3097;42.692;23.278;2022-12-18T03:33:53;10.47;;;6.43;;
6131;SDS011;3097;42.692;23.278;2022-12-18T03:36:20;9.57;;;5.53;;
6131;SDS011;3097;42.692;23.278;2022-12-18T03:38:47;9.33;;;6.13;;
6131;SDS011;3097;42.692;23.278;2022-12-18T03:41:22;9.13;;;5.97;;
6131;SDS011;3097;42.692;23.278;2022-12-18T03:44:08;8.63;;;6.33;;
6131;SDS011;3097;42.692;23.278;2022-12-18T03:49:12;9.60;;;6.30;;
6131;SDS011;3097;42.692;23.278;2022-12-18T03:51:48;9.03;;;5.83;;
6131;SDS011;3097;42.692;23.278;2022-12-18T03:54:18;10.63;;;6.90;;
6131;SDS011;3097;42.692;23.278;2022-12-18T03:56:49;11.53;;;6.40;;
6131;SDS011;3097;42.692;23.278;2022-12-18T03:59:23;9.77;;;6.40;;
6131;SDS011;3097;42.692;23.278;2022-12-18T04:01:52;12.30;;;7.30;;
6131;SDS011;3097;42.692;23.278;2022-12-18T04:04:20;9.67;;;6.33;;
6131;SDS011;3097;42.692;23.278;2022-12-18T04:06:48;8.50;;;6.20;;
6131;SDS011;3097;42.692;23.278;2022-12-18T04:09:15;8.17;;;5.73;;
6131;SDS011;3097;42.692;23.278;2022-12-18T04:11:41;11.33;;;7.37;;
6131;SDS011;3097;42.692;23.278;2022-12-18T04:14:09;15.07;;;7.93;;
6131;SDS011;3097;42.692;23.278;2022-12-18T04:16:35;13.17;;;7.07;;
6131;SDS011;3097;42.692;23.278;2022-12-18T04:19:00;12.40;;;6.80;;
6131;SDS011;3097;42.692;23.278;2022-12-18T04:21:26;12.67;;;7.40;;
6131;SDS011;3097;42.692;23.278;2022-12-18T04:23:51;12.67;;;7.73;;
6131;SDS011;3097;42.692;23.278;2022-12-18T04:26:17;12.00;;;7.70;;
6131;SDS011;3097;42.692;23.278;2022-12-18T04:28:42;12.90;;;7.50;;
6131;SDS011;3097;42.692;23.278;2022-12-18T04:31:07;13.07;;;7.47;;
6131;SDS011;3097;42.692;23.278;2022-12-18T04:33:33;12.83;;;7.47;;
6131;SDS011;3097;42.692;23.278;2022-12-18T04:35:58;10.50;;;7.00;;
6131;SDS011;3097;42.692;23.278;2022-12-18T04:38:24;8.93;;;6.43;;
6131;SDS011;3097;42.692;23.278;2022-12-18T04:40:49;10.03;;;6.57;;
6131;SDS011;3097;42.692;23.278;2022-12-18T04:43:15;11.23;;;6.67;;
6131;SDS011;3097;42.692;23.278;2022-12-18T04:45:40;13.13;;;7.40;;
6131;SDS011;3097;42.692;23.278;2022-12-18T04:48:06;12.67;;;7.57;;
6131;SDS011;3097;42.692;23.278;2022-12-18T04:50:31;13.27;;;8.07;;
6131;SDS011;3097;42.692;23.278;2022-12-18T04:52:57;13.33;;;7.03;;
6131;SDS011;3097;42.692;23.278;2022-12-18T04:55:23;13.37;;;7.77;;
6131;SDS011;3097;42.692;23.278;2022-12-18T04:57:51;15.43;;;8.63;;
6131;SDS011;3097;42.692;23.278;2022-12-18T05:00:17;16.60;;;8.73;;
6131;SDS011;3097;42.692;23.278;2022-12-18T05:02:42;17.00;;;9.70;;
6131;SDS011;3097;42.692;23.278;2022-12-18T05:05:08;15.47;;;8.10;;
6131;SDS011;3097;42.692;23.278;2022-12-18T05:07:34;15.73;;;8.40;;
6131;SDS011;3097;42.692;23.278;2022-12-18T05:09:59;20.43;;;9.77;;
6131;SDS011;3097;42.692;23.278;2022-12-18T05:12:25;13.23;;;8.47;;
6131;SDS011;3097;42.692;23.278;2022-12-18T05:14:51;19.47;;;9.60;;
6131;SDS011;3097;42.692;23.278;2022-12-18T05:17:16;22.30;;;11.83;;
6131;SDS011;3097;42.692;23.278;2022-12-18T05:19:41;26.23;;;14.27;;
6131;SDS011;3097;42.692;23.278;2022-12-18T05:22:07;17.07;;;9.67;;
6131;SDS011;3097;42.692;23.278;2022-12-18T05:24:33;16.13;;;8.53;;
6131;SDS011;3097;42.692;23.278;2022-12-18T05:26:58;21.17;;;10.27;;
6131;SDS011;3097;42.692;23.278;2022-12-18T05:29:24;17.53;;;9.20;;
6131;SDS011;3097;42.692;23.278;2022-12-18T05:31:49;16.83;;;8.97;;
6131;SDS011;3097;42.692;23.278;2022-12-18T05:34:15;16.93;;;9.03;;
6131;SDS011;3097;42.692;23.278;2022-12-18T05:36:40;16.83;;;8.70;;
6131;SDS011;3097;42.692;23.278;2022-12-18T05:39:06;16.77;;;9.47;;
6131;SDS011;3097;42.692;23.278;2022-12-18T05:41:31;18.37;;;9.67;;
6131;SDS011;3097;42.692;23.278;2022-12-18T05:43:57;15.03;;;9.10;;
6131;SDS011;3097;42.692;23.278;2022-12-18T05:46:23;19.27;;;9.27;;
6131;SDS011;3097;42.692;23.278;2022-12-18T05:48:49;16.83;;;8.93;;
6131;SDS011;3097;42.692;23.278;2022-12-18T05:51:16;19.53;;;9.87;;
6131;SDS011;3097;42.692;23.278;2022-12-18T05:53:43;20.90;;;10.07;;
6131;SDS011;3097;42.692;23.278;2022-12-18T05:56:10;23.17;;;10.13;;
6131;SDS011;3097;42.692;23.278;2022-12-18T05:58:38;20.60;;;10.57;;
6131;SDS011;3097;42.692;23.278;2022-12-18T06:01:17;18.97;;;9.50;;
6131;SDS011;3097;42.692;23.278;2022-12-18T06:03:45;19.20;;;9.57;;
6131;SDS011;3097;42.692;23.278;2022-12-18T06:06:17;22.83;;;10.53;;
6131;SDS011;3097;42.692;23.278;2022-12-18T06:08:47;14.93;;;9.10;;
6131;SDS011;3097;42.692;23.278;2022-12-18T06:11:16;18.33;;;9.23;;
6131;SDS011;3097;42.692;23.278;2022-12-18T06:13:44;18.03;;;9.53;;
6131;SDS011;3097;42.692;23.278;2022-12-18T06:16:09;14.90;;;8.63;;
6131;SDS011;3097;42.692;23.278;2022-12-18T06:18:36;21.23;;;9.87;;
6131;SDS011;3097;42.692;23.278;2022-12-18T06:21:02;20.13;;;9.90;;
6131;SDS011;3097;42.692;23.278;2022-12-18T06:23:27;16.93;;;8.60;;
6131;SDS011;3097;42.692;23.278;2022-12-18T06:25:53;20.67;;;10.57;;
6131;SDS011;3097;42.692;23.278;2022-12-18T06:28:19;23.93;;;11.37;;
6131;SDS011;3097;42.692;23.278;2022-12-18T06:30:45;20.27;;;9.67;;
6131;SDS011;3097;42.692;23.278;2022-12-18T06:33:11;21.23;;;10.00;;
6131;SDS011;3097;42.692;23.278;2022-12-18T06:35:36;24.60;;;11.37;;
6131;SDS011;3097;42.692;23.278;2022-12-18T06:38:02;23.83;;;12.30;;
6131;SDS011;3097;42.692;23.278;2022-12-18T06:40:28;29.53;;;12.30;;
6131;SDS011;3097;42.692;23.278;2022-12-18T06:42:53;21.83;;;11.67;;
6131;SDS011;3097;42.692;23.278;2022-12-18T06:45:19;21.43;;;11.10;;
6131;SDS011;3097;42.692;23.278;2022-12-18T06:47:44;25.07;;;11.07;;
6131;SDS011;3097;42.692;23.278;2022-12-18T06:50:10;21.67;;;11.97;;
6131;SDS011;3097;42.692;23.278;2022-12-18T06:52:36;27.13;;;12.27;;
6131;SDS011;3097;42.692;23.278;2022-12-18T06:55:01;25.40;;;10.77;;
6131;SDS011;3097;42.692;23.278;2022-12-18T06:57:28;20.80;;;10.77;;
6131;SDS011;3097;42.692;23.278;2022-12-18T06:59:53;26.43;;;11.40;;
6131;SDS011;3097;42.692;23.278;2022-12-18T07:02:19;17.47;;;9.70;;
6131;SDS011;3097;42.692;23.278;2022-12-18T07:04:44;22.23;;;10.77;;
6131;SDS011;3097;42.692;23.278;2022-12-18T07:07:10;21.43;;;10.47;;
6131;SDS011;3097;42.692;23.278;2022-12-18T07:09:35;23.83;;;11.63;;
6131;SDS011;3097;42.692;23.278;2022-12-18T07:12:00;18.13;;;10.47;;
6131;SDS011;3097;42.692;23.278;2022-12-18T07:14:30;22.20;;;10.40;;
6131;SDS011;3097;42.692;23.278;2022-12-18T07:16:55;24.20;;;11.13;;
6131;SDS011;3097;42.692;23.278;2022-12-18T07:19:23;26.37;;;12.97;;
6131;SDS011;3097;42.692;23.278;2022-12-18T07:21:49;23.50;;;11.00;;
6131;SDS011;3097;42.692;23.278;2022-12-18T07:24:15;21.90;;;10.13;;
6131;SDS011;3097;42.692;23.278;2022-12-18T07:26:41;20.03;;;10.77;;
6131;SDS011;3097;42.692;23.278;2022-12-18T07:29:06;27.60;;;11.80;;
6131;SDS011;3097;42.692;23.278;2022-12-18T07:31:31;24.10;;;11.77;;
6131;SDS011;3097;42.692;23.278;2022-12-18T07:33:57;28.40;;;12.00;;
6131;SDS011;3097;42.692;23.278;2022-12-18T07:36:22;25.17;;;12.33;;
6131;SDS011;3097;42.692;23.278;2022-12-18T07:38:49;22.17;;;11.47;;
6131;SDS011;3097;42.692;23.278;2022-12-18T07:41:15;22.50;;;10.87;;
6131;SDS011;3097;42.692;23.278;2022-12-18T07:43:41;25.57;;;11.53;;
6131;SDS011;3097;42.692;23.278;2022-12-18T07:46:07;25.80;;;12.40;;
6131;SDS011;3097;42.692;23.278;2022-12-18T07:48:34;29.67;;;11.43;;
6131;SDS011;3097;42.692;23.278;2022-12-18T07:51:00;27.77;;;12.87;;
6131;SDS011;3097;42.692;23.278;2022-12-18T07:53:29;29.73;;;12.47;;
6131;SDS011;3097;42.692;23.278;2022-12-18T07:55:56;22.77;;;11.97;;
6131;SDS011;3097;42.692;23.278;2022-12-18T07:58:22;29.90;;;12.70;;
6131;SDS011;3097;42.692;23.278;2022-12-18T08:00:48;27.30;;;13.10;;
6131;SDS011;3097;42.692;23.278;2022-12-18T08:03:13;24.33;;;12.23;;
6131;SDS011;3097;42.692;23.278;2022-12-18T08:05:39;30.57;;;12.70;;
6131;SDS011;3097;42.692;23.278;2022-12-18T08:08:04;28.40;;;12.30;;
6131;SDS011;3097;42.692;23.278;2022-12-18T08:10:30;26.93;;;12.70;;
6131;SDS011;3097;42.692;23.278;2022-12-18T08:12:55;29.30;;;12.83;;
6131;SDS011;3097;42.692;23.278;2022-12-18T08:15:21;25.97;;;12.57;;
6131;SDS011;3097;42.692;23.278;2022-12-18T08:17:49;28.87;;;12.73;;
6131;SDS011;3097;42.692;23.278;2022-12-18T08:20:15;23.70;;;11.30;;
6131;SDS011;3097;42.692;23.278;2022-12-18T08:22:44;27.33;;;12.87;;
6131;SDS011;3097;42.692;23.278;2022-12-18T08:25:13;30.80;;;13.50;;
6131;SDS011;3097;42.692;23.278;2022-12-18T08:27:38;29.17;;;12.77;;
6131;SDS011;3097;42.692;23.278;2022-12-18T08:30:04;27.50;;;12.43;;
6131;SDS011;3097;42.692;23.278;2022-12-18T08:32:29;26.63;;;12.67;;
6131;SDS011;3097;42.692;23.278;2022-12-18T08:34:55;30.27;;;13.17;;
6131;SDS011;3097;42.692;23.278;2022-12-18T08:37:21;21.07;;;11.30;;
6131;SDS011;3097;42.692;23.278;2022-12-18T08:39:46;26.33;;;11.87;;
6131;SDS011;3097;42.692;23.278;2022-12-18T08:42:11;25.70;;;10.97;;
6131;SDS011;3097;42.692;23.278;2022-12-18T08:44:55;25.37;;;11.93;;
6131;SDS011;3097;42.692;23.278;2022-12-18T08:47:21;28.90;;;12.17;;
6131;SDS011;3097;42.692;23.278;2022-12-18T08:49:46;28.00;;;12.20;;
6131;SDS011;3097;42.692;23.278;2022-12-18T08:52:12;26.63;;;11.97;;
6131;SDS011;3097;42.692;23.278;2022-12-18T08:54:40;28.53;;;13.47;;
6131;SDS011;3097;42.692;23.278;2022-12-18T08:57:05;29.50;;;11.67;;
6131;SDS011;3097;42.692;23.278;2022-12-18T08:59:34;30.83;;;13.40;;
6131;SDS011;3097;42.692;23.278;2022-12-18T09:01:59;28.40;;;12.17;;
6131;SDS011;3097;42.692;23.278;2022-12-18T09:04:25;26.33;;;12.30;;
6131;SDS011;3097;42.692;23.278;2022-12-18T09:06:50;30.57;;;13.43;;
6131;SDS011;3097;42.692;23.278;2022-12-18T09:09:16;23.27;;;10.53;;
6131;SDS011;3097;42.692;23.278;2022-12-18T09:11:44;26.73;;;11.73;;
6131;SDS011;3097;42.692;23.278;2022-12-18T09:14:10;24.07;;;10.40;;
6131;SDS011;3097;42.692;23.278;2022-12-18T09:16:35;27.43;;;13.10;;
6131;SDS011;3097;42.692;23.278;2022-12-18T09:19:02;24.17;;;11.73;;
6131;SDS011;3097;42.692;23.278;2022-12-18T09:21:34;26.73;;;12.87;;
6131;SDS011;3097;42.692;23.278;2022-12-18T09:24:04;28.13;;;12.63;;
6131;SDS011;3097;42.692;23.278;2022-12-18T09:26:30;24.07;;;12.20;;
6131;SDS011;3097;42.692;23.278;2022-12-18T09:28:55;26.50;;;11.10;;
6131;SDS011;3097;42.692;23.278;2022-12-18T09:31:22;25.20;;;11.77;;
6131;SDS011;3097;42.692;23.278;2022-12-18T09:33:49;24.07;;;11.87;;
6131;SDS011;3097;42.692;23.278;2022-12-18T09:36:16;23.17;;;10.80;;
6131;SDS011;3097;42.692;23.278;2022-12-18T09:38:42;26.10;;;11.73;;
6131;SDS011;3097;42.692;23.278;2022-12-18T09:43:44;26.50;;;10.47;;
6131;SDS011;3097;42.692;23.278;2022-12-18T09:46:26;23.27;;;9.93;;
6131;SDS011;3097;42.692;23.278;2022-12-18T09:48:56;24.63;;;12.10;;
6131;SDS011;3097;42.692;23.278;2022-12-18T09:51:39;23.50;;;11.20;;
6131;SDS011;3097;42.692;23.278;2022-12-18T09:54:18;22.77;;;10.80;;
6131;SDS011;3097;42.692;23.278;2022-12-18T09:56:49;29.70;;;13.93;;
6131;SDS011;3097;42.692;23.278;2022-12-18T09:59:18;26.33;;;11.80;;
6131;SDS011;3097;42.692;23.278;2022-12-18T10:01:48;28.93;;;12.87;;
6131;SDS011;3097;42.692;23.278;2022-12-18T10:04:14;24.43;;;11.50;;
6131;SDS011;3097;42.692;23.278;2022-12-18T10:06:42;20.73;;;10.37;;
6131;SDS011;3097;42.692;23.278;2022-12-18T10:20:02;22.40;;;10.27;;
6131;SDS011;3097;42.692;23.278;2022-12-18T10:22:53;25.40;;;10.80;;
6131;SDS011;3097;42.692;23.278;2022-12-18T10:28:12;25.47;;;12.40;;
6131;SDS011;3097;42.692;23.278;2022-12-18T10:30:40;23.87;;;10.80;;
6131;SDS011;3097;42.692;23.278;2022-12-18T10:33:09;31.53;;;13.13;;
6131;SDS011;3097;42.692;23.278;2022-12-18T10:35:41;26.70;;;12.47;;
6131;SDS011;3097;42.692;23.278;2022-12-18T10:38:20;33.40;;;16.23;;
6131;SDS011;3097;42.692;23.278;2022-12-18T10:40:49;28.53;;;12.20;;
6131;SDS011;3097;42.692;23.278;2022-12-18T10:43:36;27.30;;;11.37;;
6131;SDS011;3097;42.692;23.278;2022-12-18T10:51:01;35.70;;;14.17;;
6131;SDS011;3097;42.692;23.278;2022-12-18T10:53:29;29.90;;;14.60;;
6131;SDS011;3097;42.692;23.278;2022-12-18T10:55:58;35.80;;;15.23;;
6131;SDS011;3097;42.692;23.278;2022-12-18T10:58:28;28.33;;;13.97;;
6131;SDS011;3097;42.692;23.278;2022-12-18T11:01:05;25.63;;;11.77;;
6131;SDS011;3097;42.692;23.278;2022-12-18T11:06:23;18.77;;;9.57;;
6131;SDS011;3097;42.692;23.278;2022-12-18T11:11:51;27.47;;;12.20;;
6131;SDS011;3097;42.692;23.278;2022-12-18T11:15:01;31.00;;;12.67;;
6131;SDS011;3097;42.692;23.278;2022-12-18T11:17:18;24.73;;;10.73;;
6131;SDS011;3097;42.692;23.278;2022-12-18T11:19:45;25.00;;;10.43;;
6131;SDS011;3097;42.692;23.278;2022-12-18T11:22:31;23.47;;;11.03;;
6131;SDS011;3097;42.692;23.278;2022-12-18T11:25:01;24.37;;;10.87;;
6131;SDS011;3097;42.692;23.278;2022-12-18T11:27:30;28.90;;;13.93;;
6131;SDS011;3097;42.692;23.278;2022-12-18T11:30:10;25.00;;;12.47;;
6131;SDS011;3097;42.692;23.278;2022-12-18T11:32:47;23.17;;;12.57;;
6131;SDS011;3097;42.692;23.278;2022-12-18T11:37:58;36.73;;;15.70;;
6131;SDS011;3097;42.692;23.278;2022-12-18T11:40:39;28.30;;;13.67;;
6131;SDS011;3097;42.692;23.278;2022-12-18T11:43:13;25.10;;;12.93;;
6131;SDS011;3097;42.692;23.278;2022-12-18T11:48:49;22.23;;;11.20;;
6131;SDS011;3097;42.692;23.278;2022-12-18T11:51:22;27.43;;;12.07;;
6131;SDS011;3097;42.692;23.278;2022-12-18T11:53:53;25.40;;;12.33;;
6131;SDS011;3097;42.692;23.278;2022-12-18T11:56:39;21.80;;;11.60;;
6131;SDS011;3097;42.692;23.278;2022-12-18T12:01:58;26.60;;;12.80;;
6131;SDS011;3097;42.692;23.278;2022-12-18T12:15:30;32.70;;;15.07;;
6131;SDS011;3097;42.692;23.278;2022-12-18T12:22:51;29.97;;;14.63;;
6131;SDS011;3097;42.692;23.278;2022-12-18T12:25:48;36.33;;;15.40;;
6131;SDS011;3097;42.692;23.278;2022-12-18T12:31:32;29.73;;;14.30;;
6131;SDS011;3097;42.692;23.278;2022-12-18T12:36:49;31.97;;;15.07;;
6131;SDS011;3097;42.692;23.278;2022-12-18T12:39:21;40.47;;;17.43;;
6131;SDS011;3097;42.692;23.278;2022-12-18T12:41:51;31.63;;;14.87;;
6131;SDS011;3097;42.692;23.278;2022-12-18T12:44:38;31.07;;;13.60;;
6131;SDS011;3097;42.692;23.278;2022-12-18T12:47:19;29.27;;;13.67;;
6131;SDS011;3097;42.692;23.278;2022-12-18T12:49:48;30.30;;;13.27;;
6131;SDS011;3097;42.692;23.278;2022-12-18T12:52:21;29.77;;;13.47;;
6131;SDS011;3097;42.692;23.278;2022-12-18T12:54:55;33.60;;;15.07;;
6131;SDS011;3097;42.692;23.278;2022-12-18T13:00:05;33.90;;;14.73;;
6131;SDS011;3097;42.692;23.278;2022-12-18T13:02:38;29.73;;;15.07;;
6131;SDS011;3097;42.692;23.278;2022-12-18T13:05:24;30.63;;;12.93;;
6131;SDS011;3097;42.692;23.278;2022-12-18T13:07:58;25.57;;;12.30;;
6131;SDS011;3097;42.692;23.278;2022-12-18T13:10:31;24.53;;;12.30;;
6131;SDS011;3097;42.692;23.278;2022-12-18T13:15:47;30.00;;;13.40;;
6131;SDS011;3097;42.692;23.278;2022-12-18T13:18:29;25.30;;;11.77;;
6131;SDS011;3097;42.692;23.278;2022-12-18T13:36:50;32.13;;;13.87;;
6131;SDS011;3097;42.692;23.278;2022-12-18T13:41:48;34.03;;;14.63;;
6131;SDS011;3097;42.692;23.278;2022-12-18T13:44:34;27.93;;;13.60;;
6131;SDS011;3097;42.692;23.278;2022-12-18T13:47:03;31.07;;;14.27;;
6131;SDS011;3097;42.692;23.278;2022-12-18T13:49:39;32.93;;;13.87;;
6131;SDS011;3097;42.692;23.278;2022-12-18T13:52:18;35.87;;;16.70;;
6131;SDS011;3097;42.692;23.278;2022-12-18T13:54:47;20.50;;;10.87;;
6131;SDS011;3097;42.692;23.278;2022-12-18T14:02:49;26.73;;;12.07;;
6131;SDS011;3097;42.692;23.278;2022-12-18T14:05:24;26.83;;;12.60;;
6131;SDS011;3097;42.692;23.278;2022-12-18T14:08:01;160.17;;;96.13;;
6131;SDS011;3097;42.692;23.278;2022-12-18T14:10:33;135.03;;;77.80;;
6131;SDS011;3097;42.692;23.278;2022-12-18T14:13:03;37.30;;;18.53;;
6131;SDS011;3097;42.692;23.278;2022-12-18T14:20:51;25.80;;;11.97;;
6131;SDS011;3097;42.692;23.278;2022-12-18T14:23:35;26.57;;;12.80;;
6131;SDS011;3097;42.692;23.278;2022-12-18T14:26:48;34.80;;;15.80;;
6131;SDS011;3097;42.692;23.278;2022-12-18T14:28:53;41.17;;;19.00;;
6131;SDS011;3097;42.692;23.278;2022-12-18T14:31:23;34.33;;;14.80;;
6131;SDS011;3097;42.692;23.278;2022-12-18T14:33:51;28.43;;;12.97;;
6131;SDS011;3097;42.692;23.278;2022-12-18T14:36:18;28.27;;;12.47;;
6131;SDS011;3097;42.692;23.278;2022-12-18T14:38:49;33.43;;;13.97;;
6131;SDS011;3097;42.692;23.278;2022-12-18T14:41:18;25.47;;;12.07;;
6131;SDS011;3097;42.692;23.278;2022-12-18T14:43:49;29.67;;;13.30;;
6131;SDS011;3097;42.692;23.278;2022-12-18T14:48:58;17.87;;;10.13;;
6131;SDS011;3097;42.692;23.278;2022-12-18T14:51:30;19.83;;;9.70;;
6131;SDS011;3097;42.692;23.278;2022-12-18T14:53:58;20.17;;;10.33;;
6131;SDS011;3097;42.692;23.278;2022-12-18T14:56:35;19.57;;;11.20;;
6131;SDS011;3097;42.692;23.278;2022-12-18T14:59:19;23.47;;;11.83;;
6131;SDS011;3097;42.692;23.278;2022-12-18T15:04:34;20.90;;;9.87;;
6131;SDS011;3097;42.692;23.278;2022-12-18T15:09:36;22.37;;;10.27;;
6131;SDS011;3097;42.692;23.278;2022-12-18T15:12:02;24.03;;;11.17;;
6131;SDS011;3097;42.692;23.278;2022-12-18T15:14:38;20.47;;;10.27;;
6131;SDS011;3097;42.692;23.278;2022-12-18T15:17:18;21.20;;;10.43;;
6131;SDS011;3097;42.692;23.278;2022-12-18T15:19:46;18.43;;;9.00;;
6131;SDS011;3097;42.692;23.278;2022-12-18T15:22:30;16.27;;;7.90;;
6131;SDS011;3097;42.692;23.278;2022-12-18T15:25:01;21.63;;;9.60;;
6131;SDS011;3097;42.692;23.278;2022-12-18T15:27:42;21.33;;;10.50;;
6131;SDS011;3097;42.692;23.278;2022-12-18T15:30:16;24.40;;;11.63;;
6131;SDS011;3097;42.692;23.278;2022-12-18T15:32:46;23.87;;;10.70;;
6131;SDS011;3097;42.692;23.278;2022-12-18T15:35:22;23.40;;;11.17;;
6131;SDS011;3097;42.692;23.278;2022-12-18T15:37:49;25.93;;;11.13;;
6131;SDS011;3097;42.692;23.278;2022-12-18T15:40:17;23.80;;;11.13;;
6131;SDS011;3097;42.692;23.278;2022-12-18T15:42:44;23.73;;;10.40;;
6131;SDS011;3097;42.692;23.278;2022-12-18T15:45:30;23.33;;;11.10;;
6131;SDS011;3097;42.692;23.278;2022-12-18T15:47:55;20.10;;;9.43;;
6131;SDS011;3097;42.692;23.278;2022-12-18T15:50:21;22.60;;;11.07;;
6131;SDS011;3097;42.692;23.278;2022-12-18T15:52:48;24.53;;;11.00;;
6131;SDS011;3097;42.692;23.278;2022-12-18T15:55:19;21.03;;;10.40;;
6131;SDS011;3097;42.692;23.278;2022-12-18T15:58:04;26.37;;;11.97;;
6131;SDS011;3097;42.692;23.278;2022-12-18T16:00:32;27.17;;;11.97;;
6131;SDS011;3097;42.692;23.278;2022-12-18T16:03:00;24.67;;;11.53;;
6131;SDS011;3097;42.692;23.278;2022-12-18T16:05:26;27.33;;;12.37;;
6131;SDS011;3097;42.692;23.278;2022-12-18T16:07:52;32.20;;;12.73;;
6131;SDS011;3097;42.692;23.278;2022-12-18T16:10:18;29.97;;;13.63;;
6131;SDS011;3097;42.692;23.278;2022-12-18T16:12:44;36.03;;;15.10;;
6131;SDS011;3097;42.692;23.278;2022-12-18T16:15:10;31.00;;;14.70;;
6131;SDS011;3097;42.692;23.278;2022-12-18T16:17:41;35.23;;;14.47;;
6131;SDS011;3097;42.692;23.278;2022-12-18T16:22:41;32.63;;;15.43;;
6131;SDS011;3097;42.692;23.278;2022-12-18T16:25:16;33.27;;;14.10;;
6131;SDS011;3097;42.692;23.278;2022-12-18T16:27:46;34.27;;;15.23;;
6131;SDS011;3097;42.692;23.278;2022-12-18T16:30:13;34.60;;;15.53;;
6131;SDS011;3097;42.692;23.278;2022-12-18T16:32:40;34.03;;;15.63;;
6131;SDS011;3097;42.692;23.278;2022-12-18T16:35:05;34.60;;;15.17;;
6131;SDS011;3097;42.692;23.278;2022-12-18T16:37:31;33.60;;;13.97;;
6131;SDS011;3097;42.692;23.278;2022-12-18T16:39:56;33.83;;;14.93;;
6131;SDS011;3097;42.692;23.278;2022-12-18T16:42:22;33.53;;;14.43;;
6131;SDS011;3097;42.692;23.278;2022-12-18T16:44:48;27.93;;;13.03;;
6131;SDS011;3097;42.692;23.278;2022-12-18T16:47:14;36.07;;;15.00;;
6131;SDS011;3097;42.692;23.278;2022-12-18T16:49:41;33.03;;;14.70;;
6131;SDS011;3097;42.692;23.278;2022-12-18T16:52:09;36.03;;;15.90;;
6131;SDS011;3097;42.692;23.278;2022-12-18T16:54:34;35.40;;;15.53;;
6131;SDS011;3097;42.692;23.278;2022-12-18T16:57:00;32.50;;;14.87;;
6131;SDS011;3097;42.692;23.278;2022-12-18T16:59:26;32.10;;;14.10;;